createdAt,value
2018-07-03T00:00:04.527Z,14.23
2018-07-03T00:01:04.706Z,14.28
2018-07-03T00:02:04.925Z,14.26
2018-07-03T00:03:05.106Z,14.33
2018-07-03T00:04:05.307Z,14.26
2018-07-03T00:05:05.464Z,14.30
2018-07-03T00:06:05.653Z,14.20
2018-07-03T00:07:05.843Z,14.22
2018-07-03T00:08:06.017Z,14.25
2018-07-03T00:09:06.196Z,14.20
2018-07-03T00:10:06.378Z,14.26
2018-07-03T00:11:06.575Z,14.11
2018-07-03T00:12:06.747Z,14.10
2018-07-03T00:13:06.927Z,14.03
2018-07-03T00:14:07.112Z,14.04
2018-07-03T00:15:07.291Z,14.11
2018-07-03T00:16:07.470Z,14.15
2018-07-03T00:17:07.641Z,14.07
2018-07-03T00:18:07.824Z,13.97
2018-07-03T00:19:08.010Z,13.93
2018-07-03T00:20:08.190Z,13.96
2018-07-03T00:21:08.373Z,13.90
2018-07-03T00:22:08.560Z,13.89
2018-07-03T00:23:08.732Z,13.68
2018-07-03T00:24:08.904Z,13.72
2018-07-03T00:25:09.108Z,13.59
2018-07-03T00:27:09.458Z,13.59
2018-07-03T00:28:09.647Z,13.60
2018-07-03T00:29:09.831Z,13.39
2018-07-03T00:30:09.997Z,13.46
2018-07-03T00:31:10.210Z,13.46
2018-07-03T00:32:10.398Z,13.50
2018-07-03T00:33:10.570Z,13.46
2018-07-03T00:34:10.753Z,13.56
2018-07-03T00:35:10.932Z,13.56
2018-07-03T00:36:11.126Z,13.60
2018-07-03T00:37:11.308Z,13.62
2018-07-03T00:38:11.488Z,13.56
2018-07-03T00:39:11.664Z,13.59
2018-07-03T00:40:11.840Z,13.59
2018-07-03T00:41:12.030Z,13.53
2018-07-03T00:42:12.228Z,13.41
2018-07-03T00:43:12.378Z,13.38
2018-07-03T00:44:12.550Z,13.46
2018-07-03T00:45:12.728Z,13.49
2018-07-03T00:46:12.907Z,13.18
2018-07-03T00:47:13.086Z,13.27
2018-07-03T00:48:13.262Z,13.22
2018-07-03T00:49:13.441Z,13.22
2018-07-03T00:50:13.622Z,13.18
2018-07-03T00:51:13.802Z,13.19
2018-07-03T00:52:13.979Z,13.27
2018-07-03T00:53:14.166Z,13.19
2018-07-03T00:54:14.365Z,13.19
2018-07-03T00:55:14.588Z,13.19
2018-07-03T00:56:14.722Z,13.20
2018-07-03T00:57:14.901Z,13.03
2018-07-03T00:58:15.071Z,13.01
2018-07-03T00:59:15.248Z,13.00
2018-07-03T01:00:15.429Z,13.01
2018-07-03T01:01:15.606Z,13.01
2018-07-03T01:02:15.786Z,12.97
2018-07-03T01:03:15.964Z,12.85
2018-07-03T01:04:16.142Z,12.70
2018-07-03T01:05:16.316Z,12.73
2018-07-03T01:06:16.500Z,12.73
2018-07-03T01:07:16.684Z,12.73
2018-07-03T01:08:16.868Z,12.65
2018-07-03T01:09:17.047Z,12.65
2018-07-03T01:10:17.558Z,12.62
2018-07-03T01:11:17.415Z,12.54
2018-07-03T01:12:17.592Z,12.45
2018-07-03T01:13:17.773Z,12.43
2018-07-03T01:14:17.961Z,12.54
2018-07-03T01:15:18.130Z,12.42
2018-07-03T01:16:18.321Z,12.49
2018-07-03T01:17:18.492Z,12.57
2018-07-03T01:18:18.668Z,12.64
2018-07-03T01:19:18.849Z,12.70
2018-07-03T01:20:19.033Z,12.68
2018-07-03T01:21:19.212Z,12.73
2018-07-03T01:22:19.394Z,12.78
2018-07-03T01:23:19.576Z,12.78
2018-07-03T01:24:20.036Z,12.79
2018-07-03T01:25:19.936Z,12.90
2018-07-03T01:26:20.110Z,12.86
2018-07-03T01:27:20.295Z,12.80
2018-07-03T01:28:20.474Z,12.75
2018-07-03T01:29:20.658Z,12.68
2018-07-03T01:30:20.842Z,12.67
2018-07-03T01:31:21.020Z,12.46
2018-07-03T01:32:21.199Z,12.64
2018-07-03T01:33:21.383Z,12.61
2018-07-03T01:34:21.575Z,12.61
2018-07-03T01:35:21.736Z,12.65
2018-07-03T01:36:21.925Z,12.46
2018-07-03T01:37:22.097Z,12.45
2018-07-03T01:38:22.283Z,12.46
2018-07-03T01:39:22.463Z,12.62
2018-07-03T01:40:22.641Z,12.50
2018-07-03T01:41:22.822Z,12.47
2018-07-03T01:42:23.010Z,12.54
2018-07-03T01:43:23.170Z,12.40
2018-07-03T01:44:23.350Z,12.39
2018-07-03T01:45:23.527Z,12.31
2018-07-03T01:46:23.708Z,12.22
2018-07-03T01:47:23.891Z,12.20
2018-07-03T01:48:24.075Z,12.20
2018-07-03T01:49:24.255Z,12.20
2018-07-03T01:50:24.435Z,12.20
2018-07-03T01:51:24.612Z,12.20
2018-07-03T01:52:24.788Z,12.10
2018-07-03T01:53:24.975Z,12.10
2018-07-03T01:54:25.182Z,12.09
2018-07-03T01:55:25.328Z,12.07
2018-07-03T01:56:25.502Z,11.97
2018-07-03T01:57:25.679Z,11.95
2018-07-03T01:58:25.859Z,12.04
2018-07-03T01:59:26.040Z,11.94
2018-07-03T02:00:26.215Z,11.84
2018-07-03T02:01:26.396Z,11.69
2018-07-03T02:02:26.583Z,11.75
2018-07-03T02:03:26.758Z,11.83
2018-07-03T02:04:26.957Z,11.87
2018-07-03T02:05:27.133Z,11.91
2018-07-03T02:06:27.305Z,11.90
2018-07-03T02:07:27.489Z,12.06
2018-07-03T02:08:27.668Z,12.02
2018-07-03T02:09:27.847Z,11.95
2018-07-03T02:10:28.025Z,11.90
2018-07-03T02:11:28.202Z,11.83
2018-07-03T02:12:28.388Z,11.63
2018-07-03T02:13:28.565Z,11.48
2018-07-03T02:14:28.750Z,11.51
2018-07-03T02:15:28.925Z,11.55
2018-07-03T02:16:29.107Z,11.47
2018-07-03T02:17:29.280Z,11.43
2018-07-03T02:18:29.473Z,11.44
2018-07-03T02:19:29.637Z,11.54
2018-07-03T02:20:29.813Z,11.43
2018-07-03T02:21:29.993Z,11.40
2018-07-03T02:22:30.172Z,11.50
2018-07-03T02:23:30.352Z,11.37
2018-07-03T02:24:30.531Z,11.26
2018-07-03T02:25:30.708Z,11.30
2018-07-03T02:26:30.889Z,11.32
2018-07-03T02:27:31.073Z,11.36
2018-07-03T02:28:31.255Z,11.41
2018-07-03T02:29:31.429Z,11.44
2018-07-03T02:30:31.607Z,11.41
2018-07-03T02:31:31.781Z,11.51
2018-07-03T02:32:31.959Z,11.54
2018-07-03T02:33:32.139Z,11.66
2018-07-03T02:34:32.318Z,11.68
2018-07-03T02:35:32.497Z,11.68
2018-07-03T02:36:32.680Z,11.65
2018-07-03T02:37:32.854Z,11.69
2018-07-03T02:38:33.039Z,11.62
2018-07-03T02:39:33.227Z,11.50
2018-07-03T02:40:33.403Z,11.52
2018-07-03T02:41:33.592Z,11.32
2018-07-03T02:42:33.766Z,11.44
2018-07-03T02:43:33.947Z,11.40
2018-07-03T02:44:34.126Z,11.30
2018-07-03T02:45:34.308Z,11.33
2018-07-03T02:46:34.484Z,11.30
2018-07-03T02:47:34.662Z,11.29
2018-07-03T02:48:34.844Z,11.29
2018-07-03T02:49:35.036Z,11.33
2018-07-03T02:50:35.197Z,11.32
2018-07-03T02:51:35.384Z,11.22
2018-07-03T02:52:35.558Z,11.25
2018-07-03T02:53:35.726Z,11.32
2018-07-03T02:54:35.916Z,11.23
2018-07-03T02:55:36.077Z,11.04
2018-07-03T02:56:36.258Z,11.00
2018-07-03T02:57:36.434Z,10.96
2018-07-03T02:58:36.614Z,10.89
2018-07-03T02:59:36.819Z,10.90
2018-07-03T03:00:36.982Z,10.81
2018-07-03T03:01:37.158Z,10.89
2018-07-03T03:02:37.333Z,10.97
2018-07-03T03:03:37.509Z,10.99
2018-07-03T03:04:37.697Z,10.89
2018-07-03T03:05:37.878Z,10.90
2018-07-03T03:06:38.043Z,10.79
2018-07-03T03:07:38.221Z,10.82
2018-07-03T03:08:38.404Z,10.78
2018-07-03T03:09:38.587Z,10.87
2018-07-03T03:10:38.762Z,10.96
2018-07-03T03:11:38.941Z,10.82
2018-07-03T03:12:39.124Z,10.76
2018-07-03T03:13:39.303Z,10.79
2018-07-03T03:14:39.499Z,10.84
2018-07-03T03:15:39.677Z,10.87
2018-07-03T03:16:39.851Z,10.75
2018-07-03T03:17:40.025Z,10.78
2018-07-03T03:18:40.206Z,10.72
2018-07-03T03:19:40.380Z,10.67
2018-07-03T03:20:40.567Z,10.76
2018-07-03T03:21:40.739Z,10.79
2018-07-03T03:22:40.918Z,10.71
2018-07-03T03:23:41.103Z,10.75
2018-07-03T03:24:41.275Z,10.82
2018-07-03T03:25:41.462Z,10.90
2018-07-03T03:26:41.633Z,10.92
2018-07-03T03:27:41.811Z,10.79
2018-07-03T03:28:41.990Z,10.75
2018-07-03T03:29:42.166Z,10.82
2018-07-03T03:30:42.353Z,10.90
2018-07-03T03:31:42.531Z,10.90
2018-07-03T03:32:42.709Z,10.84
2018-07-03T03:33:42.883Z,10.75
2018-07-03T03:34:43.108Z,10.86
2018-07-03T03:35:43.248Z,10.89
2018-07-03T03:36:43.418Z,10.89
2018-07-03T03:37:43.600Z,10.94
2018-07-03T03:38:43.773Z,10.90
2018-07-03T03:39:43.962Z,10.92
2018-07-03T03:40:44.146Z,10.89
2018-07-03T03:41:44.329Z,10.86
2018-07-03T03:42:44.510Z,10.93
2018-07-03T03:43:44.689Z,10.78
2018-07-03T03:44:44.869Z,10.79
2018-07-03T03:45:45.048Z,10.74
2018-07-03T03:46:45.224Z,10.84
2018-07-03T03:47:45.402Z,10.89
2018-07-03T03:48:45.584Z,10.96
2018-07-03T03:49:45.763Z,11.02
2018-07-03T03:50:45.939Z,11.05
2018-07-03T03:51:46.130Z,11.22
2018-07-03T03:52:46.297Z,11.04
2018-07-03T03:53:46.527Z,11.00
2018-07-03T03:54:46.664Z,11.10
2018-07-03T03:55:46.844Z,11.15
2018-07-03T03:56:47.262Z,11.07
2018-07-03T03:57:47.192Z,11.08
2018-07-03T03:58:47.370Z,11.00
2018-07-03T03:59:47.556Z,11.04
2018-07-03T04:00:47.757Z,10.99
2018-07-03T04:01:47.916Z,10.93
2018-07-03T04:02:48.095Z,11.00
2018-07-03T04:03:48.275Z,11.08
2018-07-03T04:04:48.457Z,11.08
2018-07-03T04:05:48.635Z,11.00
2018-07-03T04:06:48.815Z,11.07
2018-07-03T04:07:48.993Z,10.93
2018-07-03T04:08:49.173Z,11.11
2018-07-03T04:09:49.358Z,10.94
2018-07-03T04:10:49.542Z,10.84
2018-07-03T04:11:49.726Z,10.93
2018-07-03T04:12:49.904Z,11.00
2018-07-03T04:13:50.086Z,11.07
2018-07-03T04:14:50.271Z,11.22
2018-07-03T04:15:50.444Z,11.26
2018-07-03T04:16:50.619Z,11.23
2018-07-03T04:17:50.802Z,11.36
2018-07-03T04:18:50.982Z,12.12
2018-07-03T04:19:51.159Z,12.60
2018-07-03T04:20:51.336Z,12.94
2018-07-03T04:21:51.515Z,13.12
2018-07-03T04:22:51.693Z,13.68
2018-07-03T04:23:51.874Z,14.53
2018-07-03T04:24:52.059Z,15.28
2018-07-03T04:25:52.239Z,15.77
2018-07-03T04:26:52.412Z,16.54
2018-07-03T04:27:52.597Z,16.89
2018-07-03T04:28:52.775Z,17.04
2018-07-03T04:29:52.956Z,17.12
2018-07-03T04:30:53.137Z,17.52
2018-07-03T04:31:53.319Z,17.87
2018-07-03T04:32:53.505Z,18.10
2018-07-03T04:33:53.684Z,18.65
2018-07-03T04:34:53.871Z,18.88
2018-07-03T04:35:54.058Z,19.41
2018-07-03T04:37:54.438Z,19.41
2018-07-03T04:38:54.676Z,19.02
2018-07-03T04:39:54.805Z,19.07
2018-07-03T04:40:54.988Z,19.22
2018-07-03T04:41:55.190Z,19.51
2018-07-03T04:42:55.424Z,19.64
2018-07-03T04:43:55.553Z,19.77
2018-07-03T04:44:55.758Z,20.09
2018-07-03T04:45:55.948Z,20.40
2018-07-03T04:46:56.194Z,20.81
2018-07-03T04:47:56.318Z,20.56
2018-07-03T04:48:56.495Z,20.67
2018-07-03T04:49:56.670Z,21.17
2018-07-03T04:50:56.863Z,20.80
2018-07-03T04:51:57.037Z,21.07
2018-07-03T04:52:57.227Z,21.29
2018-07-03T04:53:57.433Z,21.52
2018-07-03T04:54:57.848Z,21.24
2018-07-03T04:55:57.785Z,21.82
2018-07-03T04:56:57.976Z,21.91
2018-07-03T04:57:58.163Z,21.75
2018-07-03T04:58:58.355Z,22.20
2018-07-03T04:59:58.549Z,22.18
2018-07-03T05:00:58.740Z,22.33
2018-07-03T05:01:59.182Z,21.98
2018-07-03T05:02:59.132Z,22.43
2018-07-03T05:03:59.325Z,22.44
2018-07-03T05:04:59.516Z,22.14
2018-07-03T05:05:59.702Z,22.17
2018-07-03T05:06:59.910Z,22.51
2018-07-03T05:08:00.113Z,22.80
2018-07-03T05:09:00.308Z,22.93
2018-07-03T05:10:00.504Z,23.09
2018-07-03T05:11:00.686Z,23.10
2018-07-03T05:12:00.882Z,23.28
2018-07-03T05:13:01.067Z,22.83
2018-07-03T05:14:01.264Z,22.96
2018-07-03T05:15:01.436Z,23.03
2018-07-03T05:16:01.628Z,23.37
2018-07-03T05:17:01.812Z,22.99
2018-07-03T05:18:02.008Z,22.87
2018-07-03T05:19:02.429Z,22.45
2018-07-03T05:20:02.389Z,22.07
2018-07-03T05:21:02.566Z,22.38
2018-07-03T05:22:02.760Z,22.11
2018-07-03T05:23:02.960Z,22.17
2018-07-03T05:26:35.461Z,23.03
2018-07-03T05:27:35.652Z,22.93
2018-07-03T05:28:35.855Z,22.94
2018-07-03T05:29:36.036Z,22.73
2018-07-03T05:30:36.237Z,23.08
2018-07-03T05:31:36.497Z,23.20
2018-07-03T05:32:36.614Z,23.24
2018-07-03T05:33:36.807Z,23.28
2018-07-03T05:34:36.995Z,23.46
2018-07-03T05:35:37.191Z,23.47
2018-07-03T05:37:37.566Z,23.91
2018-07-03T05:38:37.755Z,24.20
2018-07-03T05:39:37.954Z,24.39
2018-07-03T05:40:38.141Z,24.36
2018-07-03T05:41:38.331Z,24.28
2018-07-03T05:42:38.525Z,24.40
2018-07-03T05:43:38.715Z,23.98
2018-07-03T05:44:38.908Z,23.76
2018-07-03T05:45:39.097Z,23.32
2018-07-03T05:46:39.290Z,23.98
2018-07-03T05:47:39.746Z,24.47
2018-07-03T05:48:39.679Z,24.40
2018-07-03T05:49:39.871Z,23.98
2018-07-03T05:50:40.064Z,23.63
2018-07-03T05:51:40.259Z,23.21
2018-07-03T05:52:40.449Z,23.66
2018-07-03T05:53:40.650Z,23.74
2018-07-03T05:54:41.104Z,23.73
2018-07-03T05:55:41.027Z,24.16
2018-07-03T05:56:41.225Z,24.36
2018-07-03T05:57:41.413Z,24.40
2018-07-03T05:58:41.607Z,24.14
2018-07-03T05:59:41.795Z,24.58
2018-07-03T06:00:41.982Z,24.50
2018-07-03T06:01:42.184Z,24.86
2018-07-03T06:02:42.511Z,24.65
2018-07-03T06:03:42.565Z,24.84
2018-07-03T06:04:42.757Z,25.28
2018-07-03T06:05:42.949Z,24.95
2018-07-03T06:06:43.139Z,24.81
2018-07-03T06:07:43.332Z,25.58
2018-07-03T06:08:43.523Z,25.59
2018-07-03T06:09:43.714Z,25.84
2018-07-03T06:10:43.907Z,26.18
2018-07-03T06:11:44.100Z,26.37
2018-07-03T06:12:44.291Z,26.48
2018-07-03T06:13:44.498Z,26.48
2018-07-03T06:14:44.686Z,25.84
2018-07-03T06:15:44.878Z,25.62
2018-07-03T06:16:45.069Z,25.31
2018-07-03T06:17:45.268Z,25.36
2018-07-03T06:18:45.458Z,25.87
2018-07-03T06:19:45.654Z,26.09
2018-07-03T06:20:45.838Z,26.09
2018-07-03T06:21:46.040Z,26.03
2018-07-03T06:22:46.239Z,25.98
2018-07-03T06:23:46.403Z,26.02
2018-07-03T06:24:46.593Z,26.00
2018-07-03T06:25:46.783Z,26.29
2018-07-03T06:26:46.975Z,25.88
2018-07-03T06:27:47.170Z,25.88
2018-07-03T06:28:47.423Z,26.15
2018-07-03T06:29:47.551Z,26.56
2018-07-03T06:30:47.744Z,26.68
2018-07-03T06:31:47.939Z,27.32
2018-07-03T06:32:48.140Z,27.30
2018-07-03T06:33:48.324Z,27.77
2018-07-03T06:34:48.516Z,27.95
2018-07-03T06:35:48.711Z,28.30
2018-07-03T06:36:48.907Z,28.00
2018-07-03T06:37:49.098Z,27.98
2018-07-03T06:38:49.311Z,27.52
2018-07-03T06:39:49.497Z,27.54
2018-07-03T06:40:49.689Z,27.37
2018-07-03T06:41:49.878Z,26.93
2018-07-03T06:42:50.074Z,27.26
2018-07-03T06:43:50.268Z,27.25
2018-07-03T06:44:50.475Z,27.55
2018-07-03T06:45:50.662Z,27.05
2018-07-03T06:46:50.846Z,27.39
2018-07-03T06:47:51.277Z,27.52
2018-07-03T06:48:51.234Z,28.05
2018-07-03T06:49:51.412Z,28.25
2018-07-03T06:50:51.605Z,27.74
2018-07-03T06:51:52.047Z,28.30
2018-07-03T06:52:52.016Z,28.30
2018-07-03T06:53:52.253Z,28.51
2018-07-03T06:54:52.378Z,28.33
2018-07-03T06:55:52.566Z,28.57
2018-07-03T06:56:52.756Z,28.35
2018-07-03T06:57:52.969Z,28.04
2018-07-03T06:58:53.142Z,28.02
2018-07-03T06:59:53.342Z,28.02
2018-07-03T07:00:53.524Z,28.33
2018-07-03T07:01:53.722Z,28.88
2018-07-03T07:02:53.913Z,29.23
2018-07-03T07:03:54.109Z,29.07
2018-07-03T07:04:54.309Z,28.93
2018-07-03T07:05:54.495Z,28.60
2018-07-03T07:06:54.696Z,28.85
2018-07-03T07:07:54.875Z,28.52
2018-07-03T07:09:55.280Z,28.26
2018-07-03T07:10:55.480Z,28.22
2018-07-03T07:11:55.680Z,28.45
2018-07-03T07:12:55.869Z,28.39
2018-07-03T07:13:56.069Z,28.32
2018-07-03T07:14:56.313Z,28.48
2018-07-03T07:15:56.438Z,28.89
2018-07-03T07:16:56.634Z,27.95
2018-07-03T07:17:56.817Z,28.14
2018-07-03T07:18:57.011Z,28.08
2018-07-03T07:19:57.218Z,28.52
2018-07-03T07:20:57.397Z,29.08
2018-07-03T07:21:57.595Z,29.32
2018-07-03T07:22:57.777Z,29.53
2018-07-03T07:23:57.973Z,29.53
2018-07-03T07:24:58.172Z,29.50
2018-07-03T07:25:58.352Z,29.32
2018-07-03T07:26:58.551Z,29.50
2018-07-03T07:27:58.764Z,29.36
2018-07-03T07:28:59.000Z,29.60
2018-07-03T07:29:59.142Z,29.81
2018-07-03T07:30:59.326Z,30.21
2018-07-03T07:31:59.515Z,30.16
2018-07-03T07:32:59.713Z,29.42
2018-07-03T07:33:59.903Z,30.02
2018-07-03T07:35:00.100Z,29.81
2018-07-03T07:36:00.325Z,30.02
2018-07-03T07:37:00.509Z,30.19
2018-07-03T07:38:00.670Z,30.44
2018-07-03T07:39:00.839Z,30.00
2018-07-03T07:40:01.032Z,29.27
2018-07-03T07:41:01.338Z,29.07
2018-07-03T07:42:01.424Z,29.63
2018-07-03T07:43:01.626Z,30.02
2018-07-03T07:44:01.823Z,29.78
2018-07-03T07:45:02.007Z,30.31
2018-07-03T07:46:02.190Z,30.51
2018-07-03T07:47:02.389Z,30.27
2018-07-03T07:48:02.570Z,30.70
2018-07-03T07:49:02.765Z,30.91
2018-07-03T07:50:02.965Z,30.62
2018-07-03T07:51:03.170Z,30.57
2018-07-03T07:52:03.351Z,30.70
2018-07-03T07:53:03.550Z,30.73
2018-07-03T07:54:03.741Z,30.92
2018-07-03T07:55:03.933Z,30.53
2018-07-03T07:56:04.137Z,30.54
2018-07-03T07:57:04.315Z,30.54
2018-07-03T07:58:04.505Z,30.43
2018-07-03T07:59:04.708Z,30.34
2018-07-03T08:00:04.891Z,30.65
2018-07-03T08:01:05.092Z,28.32
2018-07-03T08:03:05.473Z,27.63
2018-07-03T08:04:05.679Z,27.42
2018-07-03T08:05:05.859Z,26.47
2018-07-03T08:06:06.177Z,26.15
2018-07-03T08:07:06.221Z,26.83
2018-07-03T08:08:06.410Z,27.71
2018-07-03T08:09:06.600Z,28.19
2018-07-03T08:10:06.791Z,28.76
2018-07-03T08:11:06.979Z,29.36
2018-07-03T08:12:07.172Z,29.45
2018-07-03T08:13:07.642Z,29.61
2018-07-03T08:14:07.561Z,29.72
2018-07-03T08:15:07.745Z,30.05
2018-07-03T08:16:07.924Z,30.47
2018-07-03T08:17:08.113Z,30.10
2018-07-03T08:18:08.301Z,30.66
2018-07-03T08:19:08.532Z,30.46
2018-07-03T08:20:08.685Z,30.37
2018-07-03T08:21:08.875Z,30.84
2018-07-03T08:22:09.097Z,30.40
2018-07-03T08:23:09.268Z,30.23
2018-07-03T08:24:09.465Z,28.79
2018-07-03T08:25:09.648Z,29.07
2018-07-03T08:26:09.836Z,29.20
2018-07-03T08:27:10.051Z,28.11
2018-07-03T08:28:10.210Z,28.72
2018-07-03T08:29:10.402Z,29.19
2018-07-03T08:30:10.594Z,29.82
2018-07-03T08:31:10.787Z,29.76
2018-07-03T08:32:10.991Z,29.31
2018-07-03T08:33:11.178Z,29.78
2018-07-03T08:34:11.384Z,30.02
2018-07-03T08:35:11.562Z,30.30
2018-07-03T08:36:11.763Z,30.66
2018-07-03T08:37:11.930Z,30.92
2018-07-03T08:38:12.135Z,29.65
2018-07-03T08:39:12.312Z,28.93
2018-07-03T08:40:12.524Z,29.23
2018-07-03T08:41:12.714Z,29.72
2018-07-03T08:42:12.906Z,29.05
2018-07-03T08:43:13.094Z,29.32
2018-07-03T08:44:13.286Z,28.76
2018-07-03T08:45:13.488Z,28.57
2018-07-03T08:46:13.684Z,28.75
2018-07-03T08:47:13.859Z,27.73
2018-07-03T08:48:14.041Z,28.30
2018-07-03T08:49:14.241Z,28.56
2018-07-03T08:50:14.430Z,28.89
2018-07-03T08:51:14.619Z,29.07
2018-07-03T08:52:14.817Z,28.98
2018-07-03T08:53:14.997Z,29.19
2018-07-03T08:54:15.180Z,28.48
2018-07-03T08:55:15.379Z,28.42
2018-07-03T08:56:15.558Z,28.35
2018-07-03T08:57:15.746Z,28.64
2018-07-03T08:58:15.951Z,28.30
2018-07-03T08:59:16.126Z,27.85
2018-07-03T09:00:16.354Z,27.86
2018-07-03T09:01:16.505Z,27.96
2018-07-03T09:02:16.684Z,27.59
2018-07-03T09:03:16.882Z,27.49
2018-07-03T09:04:17.071Z,27.42
2018-07-03T09:05:17.258Z,27.60
2018-07-03T09:06:17.449Z,26.59
2018-07-03T09:07:17.637Z,26.41
2018-07-03T09:08:17.830Z,26.81
2018-07-03T09:09:18.024Z,27.71
2018-07-03T09:10:18.241Z,27.89
2018-07-03T09:11:18.402Z,27.96
2018-07-03T09:12:18.589Z,28.00
2018-07-03T09:13:18.792Z,27.89
2018-07-03T09:14:18.968Z,27.90
2018-07-03T09:15:19.163Z,28.22
2018-07-03T09:16:19.351Z,28.63
2018-07-03T09:17:19.530Z,29.13
2018-07-03T09:18:19.734Z,28.91
2018-07-03T09:19:19.919Z,28.69
2018-07-03T09:20:20.107Z,27.64
2018-07-03T09:21:20.289Z,27.47
2018-07-03T09:22:20.557Z,27.54
2018-07-03T09:23:20.617Z,27.33
2018-07-03T09:24:20.818Z,27.65
2018-07-03T09:25:21.003Z,27.86
2018-07-03T09:26:21.210Z,27.89
2018-07-03T09:27:21.372Z,28.20
2018-07-03T09:28:21.580Z,27.36
2018-07-03T09:29:21.772Z,27.60
2018-07-03T09:30:21.976Z,28.08
2018-07-03T09:31:22.150Z,28.39
2018-07-03T09:32:22.351Z,28.67
2018-07-03T09:33:22.535Z,29.02
2018-07-03T09:34:22.728Z,28.38
2018-07-03T09:35:22.918Z,28.25
2018-07-03T09:36:23.173Z,28.60
2018-07-03T09:37:23.548Z,28.79
2018-07-03T09:38:23.484Z,28.22
2018-07-03T09:39:23.683Z,27.60
2018-07-03T09:40:23.860Z,26.97
2018-07-03T09:41:24.060Z,26.52
2018-07-03T09:42:24.287Z,26.22
2018-07-03T09:43:24.426Z,25.87
2018-07-03T09:44:24.617Z,26.22
2018-07-03T09:45:24.806Z,26.74
2018-07-03T09:46:25.199Z,27.08
2018-07-03T09:47:25.190Z,27.45
2018-07-03T09:48:25.360Z,27.45
2018-07-03T09:49:25.545Z,27.82
2018-07-03T09:50:25.740Z,28.04
2018-07-03T09:51:25.925Z,27.87
2018-07-03T09:52:26.113Z,27.68
2018-07-03T09:53:26.313Z,26.83
2018-07-03T09:54:26.493Z,26.59
2018-07-03T09:55:26.696Z,26.85
2018-07-03T09:56:26.874Z,27.15
2018-07-03T09:57:27.060Z,27.54
2018-07-03T09:58:27.270Z,27.73
2018-07-03T09:59:27.447Z,27.83
2018-07-03T10:00:27.625Z,28.10
2018-07-03T10:01:27.835Z,28.17
2018-07-03T10:02:28.023Z,28.29
2018-07-03T10:03:28.223Z,28.86
2018-07-03T10:04:28.390Z,29.13
2018-07-03T10:05:28.587Z,28.84
2018-07-03T10:06:28.764Z,29.07
2018-07-03T10:07:28.966Z,29.04
2018-07-03T10:08:29.155Z,29.10
2018-07-03T10:09:29.345Z,29.19
2018-07-03T10:10:29.530Z,28.81
2018-07-03T10:11:29.711Z,28.93
2018-07-03T10:12:29.871Z,29.08
2018-07-03T10:13:30.097Z,28.97
2018-07-03T10:14:30.274Z,28.89
2018-07-03T10:15:30.468Z,28.89
2018-07-03T10:16:30.615Z,28.76
2018-07-03T10:17:30.817Z,28.75
2018-07-03T10:18:31.026Z,28.74
2018-07-03T10:19:31.190Z,28.57
2018-07-03T10:20:31.361Z,28.33
2018-07-03T10:21:31.583Z,28.44
2018-07-03T10:22:31.768Z,28.26
2018-07-03T10:23:31.961Z,28.29
2018-07-03T10:24:32.126Z,28.32
2018-07-03T10:25:32.345Z,27.95
2018-07-03T10:26:32.495Z,28.15
2018-07-03T10:27:32.673Z,28.47
2018-07-03T10:28:32.852Z,28.57
2018-07-03T10:29:33.050Z,28.78
2018-07-03T10:30:33.228Z,29.17
2018-07-03T10:31:33.428Z,29.41
2018-07-03T10:32:33.615Z,29.14
2018-07-03T10:33:33.775Z,28.11
2018-07-03T10:34:33.951Z,28.01
2018-07-03T10:35:34.125Z,28.04
2018-07-03T10:36:34.345Z,28.22
2018-07-03T10:37:34.685Z,28.20
2018-07-03T10:38:34.675Z,28.37
2018-07-03T10:39:34.938Z,28.35
2018-07-03T10:40:35.022Z,28.59
2018-07-03T10:41:35.236Z,28.19
2018-07-03T10:42:35.389Z,28.04
2018-07-03T10:43:35.566Z,27.78
2018-07-03T10:44:35.738Z,27.71
2018-07-03T10:45:35.921Z,27.60
2018-07-03T10:46:36.101Z,27.80
2018-07-03T10:47:36.284Z,27.68
2018-07-03T10:48:36.466Z,27.37
2018-07-03T10:49:36.655Z,27.63
2018-07-03T10:50:36.829Z,27.86
2018-07-03T10:51:37.047Z,27.15
2018-07-03T10:52:37.218Z,26.51
2018-07-03T10:53:37.382Z,26.45
2018-07-03T10:54:37.565Z,26.85
2018-07-03T10:55:37.743Z,26.99
2018-07-03T10:56:37.924Z,27.48
2018-07-03T10:57:38.135Z,27.73
2018-07-03T10:58:38.298Z,28.10
2018-07-03T10:59:38.606Z,28.30
2018-07-03T11:00:38.683Z,28.59
2018-07-03T11:01:38.836Z,28.45
2018-07-03T11:02:39.016Z,28.38
2018-07-03T11:03:39.240Z,27.92
2018-07-03T11:04:39.372Z,27.22
2018-07-03T11:05:39.589Z,26.97
2018-07-03T11:06:39.783Z,27.05
2018-07-03T11:07:40.014Z,27.14
2018-07-03T11:08:40.198Z,27.10
2018-07-03T11:09:40.391Z,27.21
2018-07-03T11:10:40.583Z,27.26
2018-07-03T11:11:40.763Z,27.30
2018-07-03T11:12:40.940Z,27.59
2018-07-03T11:13:41.146Z,27.98
2018-07-03T11:14:41.319Z,28.15
2018-07-03T11:15:41.502Z,28.27
2018-07-03T11:16:41.684Z,28.54
2018-07-03T11:17:41.865Z,28.64
2018-07-03T11:18:42.067Z,28.47
2018-07-03T11:19:42.298Z,28.64
2018-07-03T11:20:42.401Z,28.60
2018-07-03T11:21:42.600Z,27.82
2018-07-03T11:22:42.769Z,27.26
2018-07-03T11:23:42.958Z,27.07
2018-07-03T11:24:43.383Z,27.10
2018-07-03T11:25:43.339Z,27.51
2018-07-03T11:26:43.497Z,27.78
2018-07-03T11:27:43.683Z,27.85
2018-07-03T11:28:43.879Z,27.96
2018-07-03T11:29:44.031Z,28.14
2018-07-03T11:30:44.215Z,28.25
2018-07-03T11:31:45.159Z,28.37
2018-07-03T11:32:44.612Z,28.33
2018-07-03T11:33:44.781Z,28.60
2018-07-03T11:34:44.956Z,28.63
2018-07-03T11:35:45.136Z,28.70
2018-07-03T11:36:45.308Z,28.70
2018-07-03T11:37:45.548Z,28.88
2018-07-03T11:38:45.685Z,28.89
2018-07-03T11:39:45.864Z,28.62
2018-07-03T11:40:46.053Z,28.59
2018-07-03T11:41:46.269Z,28.64
2018-07-03T11:42:46.427Z,27.96
2018-07-03T11:43:46.612Z,28.26
2018-07-03T11:44:46.873Z,28.49
2018-07-03T11:45:46.985Z,28.66
2018-07-03T11:46:47.177Z,28.75
2018-07-03T11:47:47.350Z,28.51
2018-07-03T11:48:47.790Z,28.02
2018-07-03T11:49:47.703Z,27.75
2018-07-03T11:50:47.900Z,27.42
2018-07-03T11:51:48.105Z,27.71
2018-07-03T11:52:48.261Z,27.78
2018-07-03T11:53:48.456Z,28.05
2018-07-03T11:54:48.617Z,28.05
2018-07-03T11:55:48.802Z,28.02
2018-07-03T11:56:48.990Z,28.10
2018-07-03T11:57:49.173Z,28.27
2018-07-03T11:59:49.562Z,28.60
2018-07-03T12:00:49.754Z,28.81
2018-07-03T12:01:49.951Z,28.93
2018-07-03T12:02:50.107Z,29.19
2018-07-03T12:03:50.293Z,28.89
2018-07-03T12:04:50.489Z,28.54
2018-07-03T12:05:51.014Z,28.45
2018-07-03T12:06:50.847Z,28.20
2018-07-03T12:07:51.029Z,27.95
2018-07-03T12:08:51.209Z,28.15
2018-07-03T12:09:51.379Z,28.17
2018-07-03T12:10:51.565Z,28.17
2018-07-03T12:11:51.743Z,28.26
2018-07-03T12:12:51.915Z,28.19
2018-07-03T12:13:52.102Z,28.32
2018-07-03T12:14:52.285Z,28.45
2018-07-03T12:15:52.458Z,28.57
2018-07-03T12:16:52.648Z,28.69
2018-07-03T12:17:52.857Z,28.72
2018-07-03T12:18:53.024Z,28.97
2018-07-03T12:19:53.264Z,29.17
2018-07-03T12:20:53.414Z,29.23
2018-07-03T12:21:53.561Z,29.12
2018-07-03T12:22:53.751Z,28.97
2018-07-03T12:23:53.932Z,28.74
2018-07-03T12:24:54.108Z,28.79
2018-07-03T12:25:54.316Z,28.79
2018-07-03T12:26:54.524Z,28.79
2018-07-03T12:27:54.708Z,28.70
2018-07-03T12:28:54.957Z,28.66
2018-07-03T12:29:55.084Z,28.76
2018-07-03T12:30:55.260Z,29.20
2018-07-03T12:31:55.454Z,29.08
2018-07-03T12:32:55.647Z,29.31
2018-07-03T12:33:55.827Z,29.31
2018-07-03T12:34:55.995Z,29.35
2018-07-03T12:35:56.189Z,28.52
2018-07-03T12:36:56.346Z,28.56
2018-07-03T12:37:56.532Z,28.51
2018-07-03T12:38:56.727Z,28.23
2018-07-03T12:39:56.885Z,28.26
2018-07-03T12:40:57.058Z,28.45
2018-07-03T12:41:57.283Z,28.63
2018-07-03T12:42:57.408Z,28.76
2018-07-03T12:43:57.652Z,28.96
2018-07-03T12:44:57.806Z,29.14
2018-07-03T12:45:57.988Z,29.29
2018-07-03T12:46:58.195Z,29.42
2018-07-03T12:47:58.340Z,29.38
2018-07-03T12:48:58.551Z,29.31
2018-07-03T12:49:58.722Z,29.39
2018-07-03T12:50:58.904Z,29.49
2018-07-03T12:51:59.075Z,29.61
2018-07-03T12:52:59.269Z,29.88
2018-07-03T12:53:59.445Z,30.03
2018-07-03T12:54:59.597Z,30.05
2018-07-03T12:55:59.815Z,29.81
2018-07-03T12:56:59.962Z,29.90
2018-07-03T12:58:00.144Z,30.05
2018-07-03T12:59:00.389Z,29.95
2018-07-03T13:00:00.492Z,29.86
2018-07-03T13:01:00.670Z,29.94
2018-07-03T13:02:00.847Z,30.05
2018-07-03T13:03:01.023Z,30.19